sensor_id;sensor_type;location;lat;lon;timestamp;P1;durP1;ratioP1;P2;durP2;ratioP2
63218;SDS011;49320;52.512;13.448;2023-04-30T00:00:01;3.55;;;1.75;;
63218;SDS011;49320;52.512;13.448;2023-04-30T00:02:27;4.63;;;1.80;;
63218;SDS011;49320;52.512;13.448;2023-04-30T00:04:54;4.10;;;1.70;;
63218;SDS011;49320;52.512;13.448;2023-04-30T00:07:21;3.05;;;1.52;;
63218;SDS011;49320;52.512;13.448;2023-04-30T00:09:48;2.60;;;1.63;;
63218;SDS011;49320;52.512;13.448;2023-04-30T00:12:16;4.05;;;2.28;;
63218;SDS011;49320;52.512;13.448;2023-04-30T00:14:43;2.50;;;1.40;;
63218;SDS011;49320;52.512;13.448;2023-04-30T00:17:10;4.70;;;1.85;;
63218;SDS011;49320;52.512;13.448;2023-04-30T00:19:37;4.10;;;1.70;;
63218;SDS011;49320;52.512;13.448;2023-04-30T00:22:04;4.43;;;1.83;;
63218;SDS011;49320;52.512;13.448;2023-04-30T00:24:31;3.97;;;1.50;;
63218;SDS011;49320;52.512;13.448;2023-04-30T00:26:58;3.42;;;1.45;;
63218;SDS011;49320;52.512;13.448;2023-04-30T00:29:25;3.83;;;1.50;;
63218;SDS011;49320;52.512;13.448;2023-04-30T00:31:51;3.10;;;1.38;;
63218;SDS011;49320;52.512;13.448;2023-04-30T00:34:18;3.50;;;1.35;;
63218;SDS011;49320;52.512;13.448;2023-04-30T00:36:45;3.25;;;1.35;;
63218;SDS011;49320;52.512;13.448;2023-04-30T00:39:12;4.57;;;1.55;;
63218;SDS011;49320;52.512;13.448;2023-04-30T00:41:39;3.28;;;1.52;;
63218;SDS011;49320;52.512;13.448;2023-04-30T00:44:07;2.67;;;1.50;;
63218;SDS011;49320;52.512;13.448;2023-04-30T00:46:34;3.45;;;1.27;;
63218;SDS011;49320;52.512;13.448;2023-04-30T00:49:00;4.03;;;1.50;;
63218;SDS011;49320;52.512;13.448;2023-04-30T00:51:30;3.83;;;1.42;;
63218;SDS011;49320;52.512;13.448;2023-04-30T00:53:59;5.70;;;1.45;;
63218;SDS011;49320;52.512;13.448;2023-04-30T00:56:30;2.22;;;1.25;;
63218;SDS011;49320;52.512;13.448;2023-04-30T00:58:58;2.38;;;1.42;;
63218;SDS011;49320;52.512;13.448;2023-04-30T01:01:25;4.20;;;1.15;;
63218;SDS011;49320;52.512;13.448;2023-04-30T01:03:54;2.58;;;1.67;;
63218;SDS011;49320;52.512;13.448;2023-04-30T01:06:21;3.35;;;1.60;;
63218;SDS011;49320;52.512;13.448;2023-04-30T01:08:48;3.72;;;1.63;;
63218;SDS011;49320;52.512;13.448;2023-04-30T01:17:35;7.07;;;1.98;;
63218;SDS011;49320;52.512;13.448;2023-04-30T01:20:10;3.13;;;1.42;;
63218;SDS011;49320;52.512;13.448;2023-04-30T01:22:44;2.80;;;1.35;;
63218;SDS011;49320;52.512;13.448;2023-04-30T01:25:27;4.68;;;1.73;;
63218;SDS011;49320;52.512;13.448;2023-04-30T01:28:13;2.45;;;1.40;;
63218;SDS011;49320;52.512;13.448;2023-04-30T01:30:42;4.07;;;1.40;;
63218;SDS011;49320;52.512;13.448;2023-04-30T01:33:12;3.80;;;1.58;;
63218;SDS011;49320;52.512;13.448;2023-04-30T01:35:58;3.40;;;1.33;;
63218;SDS011;49320;52.512;13.448;2023-04-30T01:39:19;4.00;;;1.42;;
63218;SDS011;49320;52.512;13.448;2023-04-30T01:42:20;3.28;;;1.48;;
63218;SDS011;49320;52.512;13.448;2023-04-30T01:45:09;4.07;;;1.58;;
63218;SDS011;49320;52.512;13.448;2023-04-30T01:48:27;4.93;;;1.92;;
63218;SDS011;49320;52.512;13.448;2023-04-30T01:53:45;4.53;;;1.60;;
63218;SDS011;49320;52.512;13.448;2023-04-30T01:56:35;3.80;;;1.52;;
63218;SDS011;49320;52.512;13.448;2023-04-30T01:59:09;4.95;;;1.70;;
63218;SDS011;49320;52.512;13.448;2023-04-30T02:01:39;5.50;;;1.60;;
63218;SDS011;49320;52.512;13.448;2023-04-30T02:04:06;7.50;;;1.80;;
63218;SDS011;49320;52.512;13.448;2023-04-30T02:06:33;3.17;;;1.73;;
63218;SDS011;49320;52.512;13.448;2023-04-30T02:09:00;4.97;;;1.60;;
63218;SDS011;49320;52.512;13.448;2023-04-30T02:11:30;6.63;;;2.15;;
63218;SDS011;49320;52.512;13.448;2023-04-30T02:13:57;3.83;;;1.80;;
63218;SDS011;49320;52.512;13.448;2023-04-30T02:16:24;5.35;;;1.92;;
63218;SDS011;49320;52.512;13.448;2023-04-30T02:18:51;5.00;;;1.63;;
63218;SDS011;49320;52.512;13.448;2023-04-30T02:21:17;5.88;;;1.90;;
63218;SDS011;49320;52.512;13.448;2023-04-30T02:23:44;4.88;;;1.70;;
63218;SDS011;49320;52.512;13.448;2023-04-30T02:26:12;5.32;;;1.83;;
63218;SDS011;49320;52.512;13.448;2023-04-30T02:28:38;5.05;;;1.90;;
63218;SDS011;49320;52.512;13.448;2023-04-30T02:31:05;6.20;;;1.85;;
63218;SDS011;49320;52.512;13.448;2023-04-30T02:33:32;6.53;;;1.98;;
63218;SDS011;49320;52.512;13.448;2023-04-30T02:36:00;3.22;;;1.63;;
63218;SDS011;49320;52.512;13.448;2023-04-30T02:38:27;7.03;;;1.95;;
63218;SDS011;49320;52.512;13.448;2023-04-30T02:40:54;5.03;;;1.88;;
63218;SDS011;49320;52.512;13.448;2023-04-30T02:43:21;5.40;;;2.05;;
63218;SDS011;49320;52.512;13.448;2023-04-30T02:45:48;6.07;;;1.88;;
63218;SDS011;49320;52.512;13.448;2023-04-30T02:48:15;3.40;;;1.80;;
63218;SDS011;49320;52.512;13.448;2023-04-30T02:50:42;6.15;;;2.10;;
63218;SDS011;49320;52.512;13.448;2023-04-30T02:53:09;5.38;;;2.13;;
63218;SDS011;49320;52.512;13.448;2023-04-30T02:55:36;5.30;;;1.95;;
63218;SDS011;49320;52.512;13.448;2023-04-30T02:58:03;5.18;;;1.98;;
63218;SDS011;49320;52.512;13.448;2023-04-30T03:00:29;4.15;;;1.90;;
63218;SDS011;49320;52.512;13.448;2023-04-30T03:02:56;4.13;;;1.95;;
63218;SDS011;49320;52.512;13.448;2023-04-30T03:05:23;6.43;;;1.90;;
63218;SDS011;49320;52.512;13.448;2023-04-30T03:07:50;6.93;;;1.85;;
63218;SDS011;49320;52.512;13.448;2023-04-30T03:10:17;4.45;;;2.10;;
63218;SDS011;49320;52.512;13.448;2023-04-30T03:12:44;3.65;;;1.90;;
63218;SDS011;49320;52.512;13.448;2023-04-30T03:15:11;3.08;;;1.67;;
63218;SDS011;49320;52.512;13.448;2023-04-30T03:17:38;3.63;;;1.85;;
63218;SDS011;49320;52.512;13.448;2023-04-30T03:20:05;3.40;;;1.90;;
63218;SDS011;49320;52.512;13.448;2023-04-30T03:22:32;3.70;;;1.80;;
63218;SDS011;49320;52.512;13.448;2023-04-30T03:24:59;3.72;;;1.83;;
63218;SDS011;49320;52.512;13.448;2023-04-30T03:27:26;4.32;;;2.03;;
63218;SDS011;49320;52.512;13.448;2023-04-30T03:29:53;3.38;;;1.70;;
63218;SDS011;49320;52.512;13.448;2023-04-30T03:32:20;3.63;;;1.90;;
63218;SDS011;49320;52.512;13.448;2023-04-30T03:34:47;4.38;;;1.90;;
63218;SDS011;49320;52.512;13.448;2023-04-30T03:37:14;4.80;;;1.80;;
63218;SDS011;49320;52.512;13.448;2023-04-30T03:39:41;5.90;;;2.08;;
63218;SDS011;49320;52.512;13.448;2023-04-30T03:42:07;5.50;;;1.92;;
63218;SDS011;49320;52.512;13.448;2023-04-30T03:44:34;6.57;;;1.98;;
63218;SDS011;49320;52.512;13.448;2023-04-30T03:47:01;5.68;;;2.00;;
63218;SDS011;49320;52.512;13.448;2023-04-30T03:49:28;6.50;;;2.00;;
63218;SDS011;49320;52.512;13.448;2023-04-30T03:51:55;3.92;;;2.00;;
63218;SDS011;49320;52.512;13.448;2023-04-30T03:54:22;5.32;;;2.05;;
63218;SDS011;49320;52.512;13.448;2023-04-30T03:56:48;4.05;;;2.05;;
63218;SDS011;49320;52.512;13.448;2023-04-30T03:59:15;4.63;;;2.10;;
63218;SDS011;49320;52.512;13.448;2023-04-30T04:01:43;3.30;;;1.90;;
63218;SDS011;49320;52.512;13.448;2023-04-30T04:04:09;6.35;;;2.40;;
63218;SDS011;49320;52.512;13.448;2023-04-30T04:06:36;4.00;;;2.30;;
63218;SDS011;49320;52.512;13.448;2023-04-30T04:09:03;3.67;;;2.10;;
63218;SDS011;49320;52.512;13.448;2023-04-30T04:11:31;3.90;;;2.15;;
63218;SDS011;49320;52.512;13.448;2023-04-30T04:13:59;6.00;;;2.15;;
63218;SDS011;49320;52.512;13.448;2023-04-30T04:16:26;6.40;;;2.53;;
63218;SDS011;49320;52.512;13.448;2023-04-30T04:18:53;6.20;;;2.60;;
63218;SDS011;49320;52.512;13.448;2023-04-30T04:21:20;4.75;;;2.42;;
63218;SDS011;49320;52.512;13.448;2023-04-30T04:23:46;3.38;;;1.90;;
63218;SDS011;49320;52.512;13.448;2023-04-30T04:26:13;4.70;;;1.98;;
63218;SDS011;49320;52.512;13.448;2023-04-30T04:28:41;3.75;;;2.10;;
63218;SDS011;49320;52.512;13.448;2023-04-30T04:31:08;3.35;;;1.90;;
63218;SDS011;49320;52.512;13.448;2023-04-30T04:33:35;4.90;;;1.92;;
63218;SDS011;49320;52.512;13.448;2023-04-30T04:36:02;5.88;;;2.47;;
63218;SDS011;49320;52.512;13.448;2023-04-30T04:38:29;5.10;;;2.20;;
63218;SDS011;49320;52.512;13.448;2023-04-30T04:40:56;4.70;;;2.25;;
63218;SDS011;49320;52.512;13.448;2023-04-30T04:43:22;6.78;;;2.35;;
63218;SDS011;49320;52.512;13.448;2023-04-30T04:45:49;4.43;;;2.40;;
63218;SDS011;49320;52.512;13.448;2023-04-30T04:48:17;6.30;;;2.67;;
63218;SDS011;49320;52.512;13.448;2023-04-30T04:50:44;4.85;;;2.10;;
63218;SDS011;49320;52.512;13.448;2023-04-30T04:53:11;4.97;;;2.00;;
63218;SDS011;49320;52.512;13.448;2023-04-30T04:55:38;5.82;;;2.35;;
63218;SDS011;49320;52.512;13.448;2023-04-30T04:58:05;4.47;;;2.42;;
63218;SDS011;49320;52.512;13.448;2023-04-30T05:00:32;6.05;;;2.50;;
63218;SDS011;49320;52.512;13.448;2023-04-30T05:02:59;7.57;;;2.33;;
63218;SDS011;49320;52.512;13.448;2023-04-30T05:05:26;4.85;;;2.58;;
63218;SDS011;49320;52.512;13.448;2023-04-30T05:07:52;6.32;;;2.50;;
63218;SDS011;49320;52.512;13.448;2023-04-30T05:10:20;5.15;;;2.65;;
63218;SDS011;49320;52.512;13.448;2023-04-30T05:12:47;4.97;;;2.83;;
63218;SDS011;49320;52.512;13.448;2023-04-30T05:15:13;4.88;;;2.33;;
63218;SDS011;49320;52.512;13.448;2023-04-30T05:17:40;5.35;;;2.42;;
63218;SDS011;49320;52.512;13.448;2023-04-30T05:20:07;4.50;;;2.45;;
63218;SDS011;49320;52.512;13.448;2023-04-30T05:22:36;6.32;;;2.50;;
63218;SDS011;49320;52.512;13.448;2023-04-30T05:25:03;5.28;;;2.40;;
63218;SDS011;49320;52.512;13.448;2023-04-30T05:27:31;4.75;;;2.80;;
63218;SDS011;49320;52.512;13.448;2023-04-30T05:29:57;6.63;;;2.90;;
63218;SDS011;49320;52.512;13.448;2023-04-30T05:32:25;5.82;;;2.83;;
63218;SDS011;49320;52.512;13.448;2023-04-30T05:34:53;6.20;;;2.92;;
63218;SDS011;49320;52.512;13.448;2023-04-30T05:37:19;6.43;;;2.78;;
63218;SDS011;49320;52.512;13.448;2023-04-30T05:39:47;5.78;;;2.17;;
63218;SDS011;49320;52.512;13.448;2023-04-30T05:42:15;6.93;;;2.90;;
63218;SDS011;49320;52.512;13.448;2023-04-30T05:44:41;5.75;;;2.65;;
63218;SDS011;49320;52.512;13.448;2023-04-30T05:47:08;5.40;;;2.70;;
63218;SDS011;49320;52.512;13.448;2023-04-30T05:49:35;5.38;;;2.63;;
63218;SDS011;49320;52.512;13.448;2023-04-30T05:52:02;5.35;;;2.53;;
63218;SDS011;49320;52.512;13.448;2023-04-30T05:54:29;6.30;;;2.25;;
63218;SDS011;49320;52.512;13.448;2023-04-30T05:56:56;6.05;;;2.80;;
63218;SDS011;49320;52.512;13.448;2023-04-30T05:59:23;7.90;;;2.97;;
63218;SDS011;49320;52.512;13.448;2023-04-30T06:01:51;5.38;;;2.35;;
63218;SDS011;49320;52.512;13.448;2023-04-30T06:04:18;4.57;;;2.70;;
63218;SDS011;49320;52.512;13.448;2023-04-30T06:06:45;7.20;;;2.50;;
63218;SDS011;49320;52.512;13.448;2023-04-30T06:09:12;5.22;;;2.58;;
63218;SDS011;49320;52.512;13.448;2023-04-30T06:11:39;6.13;;;2.95;;
63218;SDS011;49320;52.512;13.448;2023-04-30T06:14:08;5.68;;;2.83;;
63218;SDS011;49320;52.512;13.448;2023-04-30T06:16:36;6.43;;;2.78;;
63218;SDS011;49320;52.512;13.448;2023-04-30T06:19:03;5.55;;;3.00;;
63218;SDS011;49320;52.512;13.448;2023-04-30T06:21:30;5.38;;;3.03;;
63218;SDS011;49320;52.512;13.448;2023-04-30T06:23:57;6.85;;;2.80;;
63218;SDS011;49320;52.512;13.448;2023-04-30T06:26:25;4.95;;;2.78;;
63218;SDS011;49320;52.512;13.448;2023-04-30T06:28:53;6.88;;;2.67;;
63218;SDS011;49320;52.512;13.448;2023-04-30T06:31:19;6.57;;;3.13;;
63218;SDS011;49320;52.512;13.448;2023-04-30T06:33:47;5.47;;;2.80;;
63218;SDS011;49320;52.512;13.448;2023-04-30T06:36:15;6.85;;;2.75;;
63218;SDS011;49320;52.512;13.448;2023-04-30T06:38:42;6.93;;;2.85;;
63218;SDS011;49320;52.512;13.448;2023-04-30T06:41:09;6.05;;;2.65;;
63218;SDS011;49320;52.512;13.448;2023-04-30T06:43:36;6.75;;;2.88;;
63218;SDS011;49320;52.512;13.448;2023-04-30T06:46:02;4.57;;;2.63;;
63218;SDS011;49320;52.512;13.448;2023-04-30T06:48:30;6.18;;;2.65;;
63218;SDS011;49320;52.512;13.448;2023-04-30T06:50:57;5.15;;;3.00;;
63218;SDS011;49320;52.512;13.448;2023-04-30T06:53:24;8.68;;;2.70;;
63218;SDS011;49320;52.512;13.448;2023-04-30T06:55:51;5.65;;;2.40;;
63218;SDS011;49320;52.512;13.448;2023-04-30T06:58:19;5.70;;;2.85;;
63218;SDS011;49320;52.512;13.448;2023-04-30T07:00:46;6.20;;;2.60;;
63218;SDS011;49320;52.512;13.448;2023-04-30T07:03:13;5.47;;;2.60;;
63218;SDS011;49320;52.512;13.448;2023-04-30T07:05:40;6.00;;;2.92;;
63218;SDS011;49320;52.512;13.448;2023-04-30T07:08:07;4.55;;;2.22;;
63218;SDS011;49320;52.512;13.448;2023-04-30T07:10:34;7.57;;;2.42;;
63218;SDS011;49320;52.512;13.448;2023-04-30T07:13:01;4.50;;;2.47;;
63218;SDS011;49320;52.512;13.448;2023-04-30T07:15:28;4.43;;;2.63;;
63218;SDS011;49320;52.512;13.448;2023-04-30T07:17:54;4.30;;;2.70;;
63218;SDS011;49320;52.512;13.448;2023-04-30T07:20:21;6.80;;;2.90;;
63218;SDS011;49320;52.512;13.448;2023-04-30T07:22:48;5.35;;;2.30;;
63218;SDS011;49320;52.512;13.448;2023-04-30T07:25:15;6.03;;;2.83;;
63218;SDS011;49320;52.512;13.448;2023-04-30T07:27:42;6.68;;;2.97;;
63218;SDS011;49320;52.512;13.448;2023-04-30T07:30:10;5.68;;;2.67;;
63218;SDS011;49320;52.512;13.448;2023-04-30T07:32:37;2.85;;;2.00;;
63218;SDS011;49320;52.512;13.448;2023-04-30T07:35:06;6.07;;;2.55;;
63218;SDS011;49320;52.512;13.448;2023-04-30T07:37:33;4.70;;;2.50;;
63218;SDS011;49320;52.512;13.448;2023-04-30T07:40:01;4.88;;;2.53;;
63218;SDS011;49320;52.512;13.448;2023-04-30T07:42:28;5.13;;;2.60;;
63218;SDS011;49320;52.512;13.448;2023-04-30T07:44:55;5.47;;;2.55;;
63218;SDS011;49320;52.512;13.448;2023-04-30T07:47:22;7.03;;;3.45;;
63218;SDS011;49320;52.512;13.448;2023-04-30T07:49:50;4.38;;;2.58;;
63218;SDS011;49320;52.512;13.448;2023-04-30T07:52:17;6.72;;;3.10;;
63218;SDS011;49320;52.512;13.448;2023-04-30T07:54:44;5.72;;;3.33;;
63218;SDS011;49320;52.512;13.448;2023-04-30T07:57:11;6.45;;;3.20;;
63218;SDS011;49320;52.512;13.448;2023-04-30T07:59:38;5.68;;;2.85;;
63218;SDS011;49320;52.512;13.448;2023-04-30T08:02:04;5.40;;;3.00;;
63218;SDS011;49320;52.512;13.448;2023-04-30T08:04:33;5.60;;;2.60;;
63218;SDS011;49320;52.512;13.448;2023-04-30T08:07:00;4.95;;;2.33;;
63218;SDS011;49320;52.512;13.448;2023-04-30T08:09:29;4.43;;;2.20;;
63218;SDS011;49320;52.512;13.448;2023-04-30T08:11:56;4.88;;;2.03;;
63218;SDS011;49320;52.512;13.448;2023-04-30T08:14:23;5.78;;;2.40;;
63218;SDS011;49320;52.512;13.448;2023-04-30T08:16:50;6.47;;;2.50;;
63218;SDS011;49320;52.512;13.448;2023-04-30T08:19:17;6.32;;;2.30;;
63218;SDS011;49320;52.512;13.448;2023-04-30T08:21:43;7.65;;;2.60;;
63218;SDS011;49320;52.512;13.448;2023-04-30T08:24:10;4.15;;;2.13;;
63218;SDS011;49320;52.512;13.448;2023-04-30T08:26:37;3.15;;;1.90;;
63218;SDS011;49320;52.512;13.448;2023-04-30T08:29:04;4.75;;;2.85;;
63218;SDS011;49320;52.512;13.448;2023-04-30T08:31:30;4.60;;;2.58;;
63218;SDS011;49320;52.512;13.448;2023-04-30T08:33:57;6.15;;;2.50;;
63218;SDS011;49320;52.512;13.448;2023-04-30T08:36:24;5.63;;;2.53;;
63218;SDS011;49320;52.512;13.448;2023-04-30T08:38:52;2.65;;;1.83;;
63218;SDS011;49320;52.512;13.448;2023-04-30T08:41:19;4.72;;;1.88;;
63218;SDS011;49320;52.512;13.448;2023-04-30T08:43:51;4.70;;;2.28;;
63218;SDS011;49320;52.512;13.448;2023-04-30T08:46:19;4.35;;;2.10;;
63218;SDS011;49320;52.512;13.448;2023-04-30T08:48:48;4.85;;;2.28;;
63218;SDS011;49320;52.512;13.448;2023-04-30T08:51:15;3.97;;;1.73;;
63218;SDS011;49320;52.512;13.448;2023-04-30T08:53:42;3.85;;;2.05;;
63218;SDS011;49320;52.512;13.448;2023-04-30T08:56:10;4.25;;;2.05;;
63218;SDS011;49320;52.512;13.448;2023-04-30T08:58:38;4.28;;;2.20;;
63218;SDS011;49320;52.512;13.448;2023-04-30T09:01:06;3.33;;;2.00;;
63218;SDS011;49320;52.512;13.448;2023-04-30T09:03:35;4.10;;;2.08;;
63218;SDS011;49320;52.512;13.448;2023-04-30T09:06:03;4.25;;;2.17;;
63218;SDS011;49320;52.512;13.448;2023-04-30T09:08:40;5.93;;;2.35;;
63218;SDS011;49320;52.512;13.448;2023-04-30T09:13:58;3.90;;;1.83;;
63218;SDS011;49320;52.512;13.448;2023-04-30T09:16:27;3.75;;;1.85;;
63218;SDS011;49320;52.512;13.448;2023-04-30T09:19:09;3.15;;;2.00;;
63218;SDS011;49320;52.512;13.448;2023-04-30T09:21:52;3.35;;;1.88;;
63218;SDS011;49320;52.512;13.448;2023-04-30T09:24:20;6.63;;;2.30;;
63218;SDS011;49320;52.512;13.448;2023-04-30T09:26:47;4.50;;;1.90;;
63218;SDS011;49320;52.512;13.448;2023-04-30T09:29:14;3.55;;;1.55;;
63218;SDS011;49320;52.512;13.448;2023-04-30T09:31:42;2.72;;;1.80;;
63218;SDS011;49320;52.512;13.448;2023-04-30T09:34:12;3.97;;;2.15;;
63218;SDS011;49320;52.512;13.448;2023-04-30T09:36:52;4.75;;;1.98;;
63218;SDS011;49320;52.512;13.448;2023-04-30T09:39:20;4.80;;;2.30;;
63218;SDS011;49320;52.512;13.448;2023-04-30T09:41:49;4.40;;;1.85;;
63218;SDS011;49320;52.512;13.448;2023-04-30T09:44:29;5.82;;;1.90;;
63218;SDS011;49320;52.512;13.448;2023-04-30T09:47:00;4.43;;;2.22;;
63218;SDS011;49320;52.512;13.448;2023-04-30T09:49:28;4.18;;;1.77;;
63218;SDS011;49320;52.512;13.448;2023-04-30T09:51:59;4.80;;;1.73;;
63218;SDS011;49320;52.512;13.448;2023-04-30T09:54:29;3.22;;;1.80;;
63218;SDS011;49320;52.512;13.448;2023-04-30T09:56:58;4.03;;;1.90;;
63218;SDS011;49320;52.512;13.448;2023-04-30T10:02:01;3.50;;;1.50;;
63218;SDS011;49320;52.512;13.448;2023-04-30T10:04:35;2.60;;;1.40;;
63218;SDS011;49320;52.512;13.448;2023-04-30T10:07:06;4.28;;;1.77;;
63218;SDS011;49320;52.512;13.448;2023-04-30T10:09:44;4.00;;;1.73;;
63218;SDS011;49320;52.512;13.448;2023-04-30T10:12:19;4.40;;;1.85;;
63218;SDS011;49320;52.512;13.448;2023-04-30T10:15:03;2.80;;;1.55;;
63218;SDS011;49320;52.512;13.448;2023-04-30T10:17:46;4.68;;;2.42;;
63218;SDS011;49320;52.512;13.448;2023-04-30T10:20:23;3.58;;;2.00;;
63218;SDS011;49320;52.512;13.448;2023-04-30T10:22:52;3.88;;;2.08;;
63218;SDS011;49320;52.512;13.448;2023-04-30T10:25:19;3.92;;;1.65;;
63218;SDS011;49320;52.512;13.448;2023-04-30T10:27:48;5.95;;;2.03;;
63218;SDS011;49320;52.512;13.448;2023-04-30T10:30:16;4.57;;;2.35;;
63218;SDS011;49320;52.512;13.448;2023-04-30T10:32:58;3.78;;;1.85;;
63218;SDS011;49320;52.512;13.448;2023-04-30T10:35:39;3.92;;;2.00;;
63218;SDS011;49320;52.512;13.448;2023-04-30T10:40:55;3.85;;;1.70;;
63218;SDS011;49320;52.512;13.448;2023-04-30T10:43:24;4.32;;;2.03;;
63218;SDS011;49320;52.512;13.448;2023-04-30T10:45:52;3.90;;;1.98;;
63218;SDS011;49320;52.512;13.448;2023-04-30T10:48:21;4.53;;;1.67;;
63218;SDS011;49320;52.512;13.448;2023-04-30T10:50:54;2.20;;;1.60;;
63218;SDS011;49320;52.512;13.448;2023-04-30T10:53:23;4.13;;;2.08;;
63218;SDS011;49320;52.512;13.448;2023-04-30T10:55:59;3.20;;;1.77;;
63218;SDS011;49320;52.512;13.448;2023-04-30T10:58:35;4.63;;;1.83;;
63218;SDS011;49320;52.512;13.448;2023-04-30T11:01:06;4.65;;;2.33;;
63218;SDS011;49320;52.512;13.448;2023-04-30T11:03:37;3.47;;;2.05;;
63218;SDS011;49320;52.512;13.448;2023-04-30T11:06:14;3.90;;;2.03;;
63218;SDS011;49320;52.512;13.448;2023-04-30T11:08:45;2.90;;;1.80;;
63218;SDS011;49320;52.512;13.448;2023-04-30T11:11:18;3.17;;;1.63;;
63218;SDS011;49320;52.512;13.448;2023-04-30T11:13:58;2.90;;;1.77;;
63218;SDS011;49320;52.512;13.448;2023-04-30T11:16:30;3.35;;;2.00;;
63218;SDS011;49320;52.512;13.448;2023-04-30T11:19:10;3.80;;;1.85;;
63218;SDS011;49320;52.512;13.448;2023-04-30T11:21:39;6.30;;;1.80;;
63218;SDS011;49320;52.512;13.448;2023-04-30T11:27:25;3.35;;;1.50;;
63218;SDS011;49320;52.512;13.448;2023-04-30T11:29:54;5.10;;;2.33;;
63218;SDS011;49320;52.512;13.448;2023-04-30T11:32:24;5.07;;;2.28;;
63218;SDS011;49320;52.512;13.448;2023-04-30T11:34:57;2.28;;;1.60;;
63218;SDS011;49320;52.512;13.448;2023-04-30T11:40:02;4.80;;;1.85;;
63218;SDS011;49320;52.512;13.448;2023-04-30T11:42:39;3.83;;;1.60;;
63218;SDS011;49320;52.512;13.448;2023-04-30T11:45:12;3.67;;;1.90;;
63218;SDS011;49320;52.512;13.448;2023-04-30T11:47:49;3.92;;;1.60;;
63218;SDS011;49320;52.512;13.448;2023-04-30T11:50:23;4.88;;;1.88;;
63218;SDS011;49320;52.512;13.448;2023-04-30T11:52:55;3.05;;;2.00;;
63218;SDS011;49320;52.512;13.448;2023-04-30T11:55:24;4.28;;;1.92;;
63218;SDS011;49320;52.512;13.448;2023-04-30T11:57:53;3.17;;;1.73;;
63218;SDS011;49320;52.512;13.448;2023-04-30T12:00:27;4.22;;;1.85;;
63218;SDS011;49320;52.512;13.448;2023-04-30T12:02:57;3.10;;;1.63;;
63218;SDS011;49320;52.512;13.448;2023-04-30T12:05:29;2.77;;;1.80;;
63218;SDS011;49320;52.512;13.448;2023-04-30T12:07:58;2.72;;;1.60;;
63218;SDS011;49320;52.512;13.448;2023-04-30T12:10:31;2.95;;;1.85;;
63218;SDS011;49320;52.512;13.448;2023-04-30T12:12:58;3.15;;;1.75;;
63218;SDS011;49320;52.512;13.448;2023-04-30T12:15:26;2.88;;;1.65;;
63218;SDS011;49320;52.512;13.448;2023-04-30T12:17:55;4.47;;;2.20;;
63218;SDS011;49320;52.512;13.448;2023-04-30T12:20:24;3.55;;;2.28;;
63218;SDS011;49320;52.512;13.448;2023-04-30T12:22:54;4.05;;;2.40;;
63218;SDS011;49320;52.512;13.448;2023-04-30T12:25:21;6.68;;;2.40;;
63218;SDS011;49320;52.512;13.448;2023-04-30T12:27:52;4.07;;;2.42;;
63218;SDS011;49320;52.512;13.448;2023-04-30T12:30:20;2.92;;;1.90;;
63218;SDS011;49320;52.512;13.448;2023-04-30T12:32:50;2.85;;;1.80;;
63218;SDS011;49320;52.512;13.448;2023-04-30T12:35:21;3.05;;;1.63;;
63218;SDS011;49320;52.512;13.448;2023-04-30T12:37:50;3.83;;;1.75;;
63218;SDS011;49320;52.512;13.448;2023-04-30T12:40:26;3.25;;;1.92;;
63218;SDS011;49320;52.512;13.448;2023-04-30T12:43:03;4.05;;;1.73;;
63218;SDS011;49320;52.512;13.448;2023-04-30T12:45:44;3.60;;;2.20;;
63218;SDS011;49320;52.512;13.448;2023-04-30T12:48:18;2.97;;;1.85;;
63218;SDS011;49320;52.512;13.448;2023-04-30T12:50:55;3.33;;;1.95;;
63218;SDS011;49320;52.512;13.448;2023-04-30T12:53:26;5.00;;;1.85;;
63218;SDS011;49320;52.512;13.448;2023-04-30T12:56:07;3.70;;;1.73;;
63218;SDS011;49320;52.512;13.448;2023-04-30T12:58:37;3.67;;;2.00;;
63218;SDS011;49320;52.512;13.448;2023-04-30T13:01:05;3.28;;;1.70;;
63218;SDS011;49320;52.512;13.448;2023-04-30T13:03:38;5.25;;;2.30;;
63218;SDS011;49320;52.512;13.448;2023-04-30T13:06:05;3.03;;;1.90;;
63218;SDS011;49320;52.512;13.448;2023-04-30T13:08:32;4.80;;;1.83;;
63218;SDS011;49320;52.512;13.448;2023-04-30T13:11:15;3.80;;;2.15;;
63218;SDS011;49320;52.512;13.448;2023-04-30T13:13:42;4.63;;;2.03;;
63218;SDS011;49320;52.512;13.448;2023-04-30T13:16:08;4.45;;;1.98;;
63218;SDS011;49320;52.512;13.448;2023-04-30T13:18:35;2.47;;;1.63;;
63218;SDS011;49320;52.512;13.448;2023-04-30T13:21:02;5.60;;;2.20;;
63218;SDS011;49320;52.512;13.448;2023-04-30T13:23:29;4.15;;;1.77;;
63218;SDS011;49320;52.512;13.448;2023-04-30T13:26:06;7.82;;;2.47;;
63218;SDS011;49320;52.512;13.448;2023-04-30T13:28:33;4.00;;;2.10;;
63218;SDS011;49320;52.512;13.448;2023-04-30T13:31:00;2.80;;;1.85;;
63218;SDS011;49320;52.512;13.448;2023-04-30T13:33:27;2.72;;;1.92;;
63218;SDS011;49320;52.512;13.448;2023-04-30T13:35:54;4.10;;;1.92;;
63218;SDS011;49320;52.512;13.448;2023-04-30T13:38:21;5.40;;;2.35;;
63218;SDS011;49320;52.512;13.448;2023-04-30T13:40:48;2.33;;;1.60;;
63218;SDS011;49320;52.512;13.448;2023-04-30T13:43:15;5.03;;;2.20;;
63218;SDS011;49320;52.512;13.448;2023-04-30T13:45:42;4.53;;;1.83;;
63218;SDS011;49320;52.512;13.448;2023-04-30T13:48:08;3.83;;;2.00;;
63218;SDS011;49320;52.512;13.448;2023-04-30T13:50:36;4.63;;;2.33;;
63218;SDS011;49320;52.512;13.448;2023-04-30T13:53:02;2.67;;;1.88;;
63218;SDS011;49320;52.512;13.448;2023-04-30T13:55:29;4.43;;;1.60;;
63218;SDS011;49320;52.512;13.448;2023-04-30T13:57:56;3.40;;;1.88;;
63218;SDS011;49320;52.512;13.448;2023-04-30T14:00:23;3.78;;;1.70;;
63218;SDS011;49320;52.512;13.448;2023-04-30T14:02:51;3.55;;;1.80;;
63218;SDS011;49320;52.512;13.448;2023-04-30T14:05:18;3.38;;;1.73;;
63218;SDS011;49320;52.512;13.448;2023-04-30T14:07:45;3.58;;;1.88;;
63218;SDS011;49320;52.512;13.448;2023-04-30T14:10:12;4.70;;;1.90;;
63218;SDS011;49320;52.512;13.448;2023-04-30T14:12:38;5.22;;;2.15;;
63218;SDS011;49320;52.512;13.448;2023-04-30T14:15:06;3.30;;;1.65;;
63218;SDS011;49320;52.512;13.448;2023-04-30T14:17:34;2.40;;;1.60;;
63218;SDS011;49320;52.512;13.448;2023-04-30T14:20:01;3.33;;;2.03;;
63218;SDS011;49320;52.512;13.448;2023-04-30T14:22:29;4.32;;;1.80;;
63218;SDS011;49320;52.512;13.448;2023-04-30T14:24:56;3.10;;;1.95;;
63218;SDS011;49320;52.512;13.448;2023-04-30T14:27:23;3.33;;;1.80;;
63218;SDS011;49320;52.512;13.448;2023-04-30T14:29:50;2.95;;;1.90;;
63218;SDS011;49320;52.512;13.448;2023-04-30T14:32:17;4.93;;;2.13;;
63218;SDS011;49320;52.512;13.448;2023-04-30T14:34:44;2.20;;;1.38;;
63218;SDS011;49320;52.512;13.448;2023-04-30T14:37:11;3.75;;;1.50;;
63218;SDS011;49320;52.512;13.448;2023-04-30T14:39:37;3.40;;;1.88;;
63218;SDS011;49320;52.512;13.448;2023-04-30T14:42:04;4.65;;;1.70;;
63218;SDS011;49320;52.512;13.448;2023-04-30T14:44:31;2.72;;;1.42;;
63218;SDS011;49320;52.512;13.448;2023-04-30T14:46:58;3.83;;;2.00;;
63218;SDS011;49320;52.512;13.448;2023-04-30T14:49:25;2.72;;;1.45;;
63218;SDS011;49320;52.512;13.448;2023-04-30T14:51:53;3.10;;;1.65;;
63218;SDS011;49320;52.512;13.448;2023-04-30T14:54:20;3.45;;;2.00;;
63218;SDS011;49320;52.512;13.448;2023-04-30T14:56:47;3.13;;;1.75;;
63218;SDS011;49320;52.512;13.448;2023-04-30T14:59:14;3.28;;;1.65;;
63218;SDS011;49320;52.512;13.448;2023-04-30T15:01:41;3.20;;;1.55;;
63218;SDS011;49320;52.512;13.448;2023-04-30T15:04:08;2.83;;;1.70;;
63218;SDS011;49320;52.512;13.448;2023-04-30T15:06:34;3.58;;;1.58;;